createdAt,value
2022-12-09T00:01:07.588Z,35.03
2022-12-09T00:03:36.803Z,35.13
2022-12-09T00:06:09.292Z,35.09
2022-12-09T00:08:37.520Z,35.16
2022-12-09T00:11:07.570Z,35.10
2022-12-09T00:13:36.484Z,35.21
2022-12-09T00:16:07.979Z,35.10
2022-12-09T00:18:37.078Z,35.21
2022-12-09T00:21:16.355Z,35.04
2022-12-09T00:23:44.311Z,35.11
2022-12-09T00:26:14.442Z,35.11
2022-12-09T00:28:42.538Z,35.16
2022-12-09T00:31:15.013Z,35.08
2022-12-09T00:33:43.388Z,35.05
2022-12-09T00:36:14.660Z,35.08
2022-12-09T00:38:43.189Z,35.14
2022-12-09T00:41:14.141Z,35.07
2022-12-09T00:43:43.253Z,35.12
2022-12-09T00:46:12.001Z,35.15
2022-12-09T00:48:40.716Z,35.15
2022-12-09T00:51:10.205Z,35.18
2022-12-09T00:53:39.126Z,35.09
2022-12-09T00:56:08.417Z,34.98
2022-12-09T00:58:37.822Z,35.15
2022-12-09T01:01:06.469Z,35.12
2022-12-09T01:03:34.667Z,35.08
2022-12-09T01:06:08.273Z,35.06
2022-12-09T01:08:38.988Z,34.98
2022-12-09T01:11:12.179Z,35.09
2022-12-09T01:13:41.818Z,35.08
2022-12-09T01:16:16.727Z,35.00
2022-12-09T01:18:45.060Z,34.96
2022-12-09T01:21:13.456Z,35.00
2022-12-09T01:23:41.860Z,35.01
2022-12-09T01:26:10.628Z,35.04
2022-12-09T01:28:39.770Z,35.02
2022-12-09T01:31:11.163Z,35.04
2022-12-09T01:33:39.437Z,34.98
2022-12-09T01:36:10.041Z,34.98
2022-12-09T01:38:38.549Z,35.03
2022-12-09T01:41:07.141Z,35.10
2022-12-09T01:43:35.649Z,35.00
2022-12-09T01:46:04.106Z,34.94
2022-12-09T01:48:36.275Z,34.97
2022-12-09T01:51:08.891Z,35.10
2022-12-09T01:53:40.663Z,34.97
2022-12-09T01:56:13.860Z,34.93
2022-12-09T01:58:42.510Z,35.03
2022-12-09T02:01:10.557Z,34.94
2022-12-09T02:03:40.037Z,34.97
2022-12-09T02:06:08.611Z,35.01
2022-12-09T02:08:37.169Z,34.98
2022-12-09T02:11:15.483Z,34.96
2022-12-09T02:13:48.614Z,35.07
2022-12-09T02:16:20.115Z,35.03
2022-12-09T02:18:57.174Z,34.98
2022-12-09T02:21:32.366Z,35.04
2022-12-09T02:24:06.067Z,35.02
2022-12-09T02:26:40.799Z,34.87
2022-12-09T02:29:32.471Z,34.93
2022-12-09T02:32:19.978Z,34.96
2022-12-09T02:34:56.708Z,35.02
2022-12-09T02:37:28.568Z,34.95
2022-12-09T02:40:02.207Z,35.05
2022-12-09T02:42:35.793Z,35.06
2022-12-09T02:45:06.967Z,34.87
2022-12-09T02:47:40.730Z,35.01
2022-12-09T02:50:14.698Z,34.92
2022-12-09T02:52:45.043Z,34.99
2022-12-09T02:55:16.502Z,34.91
2022-12-09T02:57:44.660Z,34.92
2022-12-09T03:00:15.835Z,34.93
2022-12-09T03:02:47.172Z,34.94
2022-12-09T03:05:23.234Z,34.89
2022-12-09T03:08:01.156Z,34.98
2022-12-09T03:10:35.380Z,35.04
2022-12-09T03:13:09.555Z,34.88
2022-12-09T03:15:42.341Z,34.95
2022-12-09T03:18:15.488Z,34.95
2022-12-09T03:20:49.771Z,34.87
2022-12-09T03:23:21.482Z,34.91
2022-12-09T03:25:53.320Z,34.98
2022-12-09T03:28:25.000Z,34.92
2022-12-09T03:30:54.604Z,34.90
2022-12-09T03:33:24.688Z,34.97
2022-12-09T03:35:57.745Z,34.91
2022-12-09T03:38:30.043Z,34.96
2022-12-09T03:41:05.330Z,34.91
2022-12-09T03:43:38.853Z,34.86
2022-12-09T03:46:07.184Z,34.91
2022-12-09T03:48:35.695Z,34.86
2022-12-09T03:51:09.858Z,34.91
2022-12-09T03:53:43.607Z,34.81
2022-12-09T03:56:18.967Z,35.05
2022-12-09T03:58:49.716Z,34.80
2022-12-09T04:01:18.412Z,34.88
2022-12-09T04:03:50.207Z,34.79
2022-12-09T04:06:20.385Z,34.90
2022-12-09T04:08:48.640Z,34.91
2022-12-09T04:11:17.151Z,34.83
2022-12-09T04:13:45.111Z,34.86
2022-12-09T04:16:13.319Z,34.95
2022-12-09T04:18:41.617Z,34.98
2022-12-09T04:21:11.076Z,34.91
2022-12-09T04:23:43.173Z,34.81
2022-12-09T04:26:15.509Z,34.77
2022-12-09T04:28:44.083Z,34.68
2022-12-09T04:31:13.227Z,34.86
2022-12-09T04:33:42.284Z,34.82
2022-12-09T04:36:13.440Z,34.77
2022-12-09T04:38:44.156Z,34.78
2022-12-09T04:41:13.308Z,34.84
2022-12-09T04:43:42.111Z,34.76
2022-12-09T04:46:13.676Z,34.78
2022-12-09T04:48:42.478Z,34.75
2022-12-09T04:51:11.363Z,34.89
2022-12-09T04:53:39.569Z,34.87
2022-12-09T04:56:12.831Z,34.75
2022-12-09T04:58:41.650Z,34.76
2022-12-09T05:01:11.451Z,34.73
2022-12-09T05:03:40.572Z,34.75
2022-12-09T05:06:11.756Z,34.76
2022-12-09T05:08:40.548Z,34.77
2022-12-09T05:11:10.734Z,34.77
2022-12-09T05:13:39.115Z,34.93
2022-12-09T05:16:15.644Z,34.87
2022-12-09T05:18:45.666Z,34.74
2022-12-09T05:21:16.071Z,34.74
2022-12-09T05:23:45.116Z,34.69
2022-12-09T05:26:16.918Z,34.74
2022-12-09T05:28:45.680Z,34.69
2022-12-09T05:31:17.195Z,34.80
2022-12-09T05:33:45.827Z,34.78
2022-12-09T05:36:17.058Z,34.70
2022-12-09T05:38:45.780Z,34.73
2022-12-09T05:41:15.931Z,34.73
2022-12-09T05:43:44.147Z,34.75
2022-12-09T05:46:12.985Z,34.78
2022-12-09T05:48:41.707Z,34.81
2022-12-09T05:51:13.660Z,34.79
2022-12-09T05:53:41.687Z,34.69
2022-12-09T05:56:10.014Z,34.76
2022-12-09T05:58:39.760Z,34.70
2022-12-09T06:01:09.464Z,34.72
2022-12-09T06:03:38.513Z,34.76
2022-12-09T06:06:08.425Z,34.73
2022-12-09T06:08:37.103Z,34.81
2022-12-09T06:11:05.895Z,34.86
2022-12-09T06:13:34.110Z,34.71
2022-12-09T06:16:06.193Z,34.78
2022-12-09T06:18:34.698Z,34.81
2022-12-09T06:21:06.902Z,34.78
2022-12-09T06:23:36.820Z,34.78
2022-12-09T06:26:06.272Z,34.86
2022-12-09T06:28:35.387Z,34.82
2022-12-09T06:31:05.109Z,34.79
2022-12-09T06:36:21.377Z,34.73
2022-12-09T06:38:49.582Z,34.82
2022-12-09T06:41:17.944Z,34.78
2022-12-09T06:43:46.152Z,34.76
2022-12-09T06:46:17.777Z,34.95
2022-12-09T06:48:46.954Z,35.14
2022-12-09T06:51:15.655Z,34.99
2022-12-09T06:53:44.247Z,34.92
2022-12-09T06:56:14.914Z,35.13
2022-12-09T06:58:44.596Z,35.12
2022-12-09T07:01:17.248Z,35.05
2022-12-09T07:03:47.980Z,35.20
2022-12-09T07:06:25.103Z,35.23
2022-12-09T07:08:54.865Z,35.34
2022-12-09T07:11:23.586Z,35.12
2022-12-09T07:13:52.229Z,35.29
2022-12-09T07:16:22.906Z,35.34
2022-12-09T07:18:51.409Z,35.29
2022-12-09T07:21:22.140Z,35.21
2022-12-09T07:23:51.171Z,35.21
2022-12-09T07:26:20.648Z,35.33
2022-12-09T07:28:51.360Z,35.25
2022-12-09T07:31:23.475Z,35.21
2022-12-09T07:33:53.530Z,35.27
2022-12-09T07:36:23.138Z,35.25
2022-12-09T07:38:56.532Z,35.34
2022-12-09T07:41:25.233Z,35.27
2022-12-09T07:43:54.388Z,35.22
2022-12-09T07:46:26.057Z,35.58
2022-12-09T07:48:55.174Z,35.37
2022-12-09T07:51:24.499Z,35.40
2022-12-09T07:53:54.062Z,35.27
2022-12-09T07:56:24.780Z,35.54
2022-12-09T07:58:55.261Z,35.42
2022-12-09T08:01:27.678Z,35.43
2022-12-09T08:03:58.181Z,35.35
2022-12-09T08:06:28.483Z,35.25
2022-12-09T08:09:00.035Z,35.36
2022-12-09T08:11:30.941Z,35.37
2022-12-09T08:14:05.661Z,35.31
2022-12-09T08:16:39.298Z,35.53
2022-12-09T08:19:08.052Z,35.27
2022-12-09T08:21:36.933Z,35.33
2022-12-09T08:24:07.749Z,35.26
2022-12-09T08:26:37.489Z,35.19
2022-12-09T08:29:10.044Z,35.23
2022-12-09T08:31:42.695Z,35.31
2022-12-09T08:34:12.234Z,35.29
2022-12-09T08:36:40.827Z,35.18
2022-12-09T08:39:09.434Z,35.31
2022-12-09T08:41:39.987Z,35.34
2022-12-09T08:44:11.361Z,35.34
2022-12-09T08:46:43.468Z,35.32
2022-12-09T08:49:12.002Z,35.28
2022-12-09T08:51:41.254Z,35.22
2022-12-09T08:54:11.410Z,35.32
2022-12-09T08:56:40.199Z,35.20
2022-12-09T08:59:08.470Z,35.23
2022-12-09T09:01:37.301Z,35.25
2022-12-09T09:04:09.884Z,35.17
2022-12-09T09:06:41.464Z,35.32
2022-12-09T09:09:12.550Z,35.34
2022-12-09T09:11:41.428Z,35.16
2022-12-09T09:14:12.506Z,35.31
2022-12-09T09:16:44.289Z,35.32
2022-12-09T09:19:18.515Z,35.25
2022-12-09T09:21:47.156Z,35.21
2022-12-09T09:24:18.196Z,35.33
2022-12-09T09:26:47.773Z,35.21
2022-12-09T09:29:18.260Z,35.38
2022-12-09T09:31:48.706Z,35.32
2022-12-09T09:34:19.208Z,35.26
2022-12-09T09:36:50.592Z,35.21
2022-12-09T09:39:19.327Z,35.20
2022-12-09T09:41:53.491Z,35.39
2022-12-09T09:44:26.631Z,35.31
2022-12-09T09:46:56.566Z,35.33
2022-12-09T09:49:35.508Z,35.44
2022-12-09T09:52:08.702Z,35.31
2022-12-09T09:54:37.256Z,35.29
2022-12-09T09:57:14.117Z,35.38
2022-12-09T09:59:54.973Z,35.31
2022-12-09T10:02:53.355Z,35.26
2022-12-09T10:05:29.275Z,35.46
2022-12-09T10:08:05.016Z,35.14
2022-12-09T10:10:45.559Z,35.41
2022-12-09T10:13:30.914Z,35.20
2022-12-09T10:16:06.583Z,35.24
2022-12-09T10:18:40.445Z,35.36
2022-12-09T10:21:17.185Z,35.27
2022-12-09T10:23:47.161Z,35.29
2022-12-09T10:26:20.978Z,35.17
2022-12-09T10:28:54.239Z,35.38
2022-12-09T10:31:22.779Z,35.29
2022-12-09T10:33:51.454Z,35.32
2022-12-09T10:36:29.397Z,35.22
2022-12-09T10:39:02.340Z,35.31
2022-12-09T10:41:59.150Z,35.32
2022-12-09T10:44:29.049Z,35.24
2022-12-09T10:47:03.222Z,35.22
2022-12-09T10:49:32.995Z,35.21
2022-12-09T10:52:05.283Z,35.22
2022-12-09T10:54:37.920Z,35.16
2022-12-09T10:57:24.524Z,35.05
2022-12-09T11:00:02.044Z,35.14
2022-12-09T11:02:32.805Z,35.08
2022-12-09T11:05:23.392Z,35.21
2022-12-09T11:07:54.669Z,35.22
2022-12-09T11:10:25.755Z,35.18
2022-12-09T11:13:05.477Z,34.89
2022-12-09T11:15:38.997Z,35.23
2022-12-09T11:18:09.612Z,35.16
2022-12-09T11:20:38.702Z,35.29
2022-12-09T11:23:17.023Z,35.05
2022-12-09T11:25:54.747Z,35.21
2022-12-09T11:28:29.224Z,35.09
2022-12-09T11:33:52.052Z,35.01
2022-12-09T11:36:23.238Z,35.21
2022-12-09T11:39:08.108Z,35.16
2022-12-09T11:41:53.758Z,35.00
2022-12-09T11:44:27.736Z,35.16
2022-12-09T11:46:59.698Z,35.16
2022-12-09T11:49:29.714Z,35.07
2022-12-09T11:52:07.374Z,35.07
2022-12-09T11:54:45.055Z,35.12
2022-12-09T11:57:23.140Z,35.07
2022-12-09T11:59:56.596Z,35.15
2022-12-09T12:02:34.018Z,35.10
2022-12-09T12:05:07.834Z,35.16
2022-12-09T12:07:43.209Z,35.36
2022-12-09T12:10:18.953Z,35.13
2022-12-09T12:13:00.423Z,35.25
2022-12-09T12:15:39.090Z,35.25
2022-12-09T12:18:14.660Z,35.28
2022-12-09T12:20:58.155Z,35.27
2022-12-09T12:23:40.619Z,35.26
2022-12-09T12:26:15.256Z,35.22
2022-12-09T12:29:07.463Z,35.67
2022-12-09T12:32:05.360Z,35.46
2022-12-09T12:34:45.260Z,35.32
2022-12-09T12:37:32.306Z,35.27
2022-12-09T12:40:09.676Z,35.28
2022-12-09T12:43:06.572Z,35.36
2022-12-09T12:46:05.074Z,35.26
2022-12-09T12:48:43.368Z,35.21
2022-12-09T12:51:21.908Z,35.27
2022-12-09T12:53:58.109Z,35.27
2022-12-09T12:56:35.161Z,35.18
2022-12-09T12:59:13.120Z,35.15
2022-12-09T13:01:53.314Z,35.24
2022-12-09T13:04:25.417Z,35.23
2022-12-09T13:07:02.069Z,35.37
2022-12-09T13:09:40.371Z,35.28
2022-12-09T13:12:14.394Z,35.27
2022-12-09T13:14:53.491Z,35.34
2022-12-09T13:17:26.695Z,35.35
2022-12-09T13:19:59.853Z,35.40
2022-12-09T13:22:34.255Z,35.30
2022-12-09T13:25:23.623Z,35.48
2022-12-09T13:27:57.196Z,35.40
2022-12-09T13:30:36.212Z,35.40
2022-12-09T13:33:23.034Z,35.61
2022-12-09T13:35:57.193Z,35.44
2022-12-09T13:38:28.396Z,35.32
2022-12-09T13:40:56.625Z,35.36
2022-12-09T13:43:27.589Z,35.29
2022-12-09T13:45:59.174Z,35.22
2022-12-09T13:48:47.836Z,35.33
2022-12-09T13:51:17.731Z,35.28
2022-12-09T13:53:50.792Z,35.43
2022-12-09T13:56:30.546Z,35.40
2022-12-09T13:59:26.739Z,35.40
2022-12-09T14:02:01.479Z,35.43
2022-12-09T14:04:32.263Z,35.39
2022-12-09T14:07:10.427Z,35.42
2022-12-09T14:09:48.907Z,35.19
2022-12-09T14:12:55.581Z,35.30
2022-12-09T14:15:38.787Z,35.30
2022-12-09T14:18:32.747Z,35.47
2022-12-09T14:21:34.423Z,35.33
2022-12-09T14:24:42.474Z,35.21
2022-12-09T14:27:16.203Z,35.34
2022-12-09T14:29:50.500Z,35.20
2022-12-09T14:32:23.420Z,35.21
2022-12-09T14:35:06.126Z,35.06
2022-12-09T14:37:45.141Z,35.28
2022-12-09T14:40:53.061Z,35.12
2022-12-09T14:43:48.451Z,35.08
2022-12-09T14:46:25.579Z,35.04
2022-12-09T14:48:57.703Z,35.09
2022-12-09T14:51:31.913Z,35.03
2022-12-09T14:54:03.244Z,35.07
2022-12-09T14:56:33.557Z,35.03
2022-12-09T14:59:06.617Z,35.01
2022-12-09T15:01:50.196Z,34.94
2022-12-09T15:04:41.537Z,35.08
2022-12-09T15:07:17.082Z,35.01
2022-12-09T15:09:51.783Z,34.97
2022-12-09T15:12:22.175Z,35.10
2022-12-09T15:14:57.177Z,35.07
2022-12-09T15:17:28.898Z,35.03
2022-12-09T15:20:01.009Z,35.04
2022-12-09T15:22:33.475Z,34.92
2022-12-09T15:25:03.176Z,34.97
2022-12-09T15:27:31.571Z,34.94
2022-12-09T15:29:59.523Z,35.07
2022-12-09T15:32:29.308Z,35.05
2022-12-09T15:35:15.973Z,34.95
2022-12-09T15:37:46.303Z,35.03
2022-12-09T15:40:19.503Z,34.92
2022-12-09T15:42:50.578Z,34.95
2022-12-09T15:45:22.529Z,35.03
2022-12-09T15:47:54.764Z,34.92
2022-12-09T15:50:27.697Z,34.90
2022-12-09T15:53:01.900Z,34.90
2022-12-09T15:55:36.757Z,34.88
2022-12-09T15:58:09.176Z,35.07
2022-12-09T16:00:40.328Z,34.98
2022-12-09T16:03:09.160Z,34.96
2022-12-09T16:05:42.218Z,34.86
2022-12-09T16:08:12.094Z,34.96
2022-12-09T16:10:47.235Z,34.89
2022-12-09T16:13:17.334Z,34.84
2022-12-09T16:15:50.043Z,34.86
2022-12-09T16:18:24.095Z,34.90
2022-12-09T16:21:19.811Z,34.78
2022-12-09T16:23:52.862Z,34.76
2022-12-09T16:26:26.190Z,34.93
2022-12-09T16:28:56.737Z,34.89
2022-12-09T16:31:24.917Z,35.00
2022-12-09T16:33:53.038Z,34.82
2022-12-09T16:36:25.260Z,34.78
2022-12-09T16:39:27.992Z,34.69
2022-12-09T16:41:58.804Z,34.75
2022-12-09T16:44:30.992Z,34.78
2022-12-09T16:47:13.919Z,34.70
2022-12-09T16:49:44.295Z,34.83
2022-12-09T16:52:14.120Z,34.65
2022-12-09T16:54:44.715Z,34.72
2022-12-09T16:57:14.464Z,34.75
2022-12-09T16:59:43.071Z,34.76
2022-12-09T17:02:22.467Z,34.70
2022-12-09T17:04:51.926Z,34.76
2022-12-09T17:07:19.911Z,34.77
2022-12-09T17:09:49.272Z,34.84
2022-12-09T17:12:17.276Z,34.84
2022-12-09T17:14:45.263Z,34.83
2022-12-09T17:17:13.601Z,34.75
2022-12-09T17:19:42.122Z,34.70
2022-12-09T17:22:10.306Z,34.73
2022-12-09T17:24:38.740Z,34.80
2022-12-09T17:27:08.056Z,34.71
2022-12-09T17:29:36.901Z,34.68
2022-12-09T17:32:05.327Z,34.76
2022-12-09T17:34:33.379Z,34.74
2022-12-09T17:37:01.749Z,34.67
2022-12-09T17:39:30.860Z,34.77
2022-12-09T17:41:58.795Z,34.73
2022-12-09T17:44:28.288Z,34.73
2022-12-09T17:46:56.240Z,34.79
2022-12-09T17:49:24.474Z,34.64
2022-12-09T17:51:52.533Z,34.61
2022-12-09T17:54:20.467Z,34.70
2022-12-09T17:56:48.539Z,34.63
2022-12-09T17:59:18.097Z,34.68
2022-12-09T18:01:47.495Z,34.78
2022-12-09T18:04:16.447Z,34.63
2022-12-09T18:06:46.111Z,34.75
2022-12-09T18:09:16.343Z,34.60
2022-12-09T18:11:44.531Z,34.76
2022-12-09T18:14:12.797Z,34.62
2022-12-09T18:16:40.899Z,34.58
2022-12-09T18:19:15.057Z,34.60
2022-12-09T18:21:43.570Z,34.66
2022-12-09T18:24:11.717Z,34.61
2022-12-09T18:26:42.050Z,34.53
2022-12-09T18:29:11.108Z,34.70
2022-12-09T18:31:39.569Z,34.55
2022-12-09T18:34:07.899Z,34.68
2022-12-09T18:36:37.800Z,34.59
2022-12-09T18:39:06.477Z,34.56
2022-12-09T18:41:35.425Z,34.60
2022-12-09T18:44:05.357Z,34.58
2022-12-09T18:46:36.428Z,34.51
2022-12-09T18:49:08.396Z,34.71
2022-12-09T18:51:39.162Z,34.55
2022-12-09T18:54:08.099Z,34.67
2022-12-09T18:56:37.055Z,34.63
2022-12-09T18:59:07.394Z,34.61
2022-12-09T19:01:39.372Z,34.70
2022-12-09T19:04:09.781Z,34.58
2022-12-09T19:06:41.284Z,34.51
2022-12-09T19:09:11.427Z,34.46
2022-12-09T19:11:41.031Z,34.38
2022-12-09T19:14:10.415Z,34.58
2022-12-09T19:16:39.217Z,34.61
2022-12-09T19:19:10.412Z,34.64
2022-12-09T19:21:40.722Z,34.71
2022-12-09T19:24:13.811Z,34.54
2022-12-09T19:26:42.843Z,34.56
2022-12-09T19:29:11.592Z,34.67
2022-12-09T19:31:42.057Z,34.72
2022-12-09T19:34:15.067Z,34.67
2022-12-09T19:36:45.565Z,34.61
2022-12-09T19:39:14.877Z,34.69
2022-12-09T19:41:43.955Z,34.62
2022-12-09T19:44:15.374Z,34.70
2022-12-09T19:46:46.794Z,34.75
2022-12-09T19:49:16.652Z,34.65
2022-12-09T19:51:47.132Z,34.67
2022-12-09T19:54:16.555Z,34.71
2022-12-09T19:56:45.236Z,34.67
2022-12-09T19:59:13.981Z,34.75
2022-12-09T20:01:44.312Z,34.74
2022-12-09T20:04:47.065Z,34.56
2022-12-09T20:07:07.829Z,34.69
2022-12-09T20:09:36.240Z,34.71
2022-12-09T20:12:04.755Z,34.66
2022-12-09T20:14:32.744Z,34.58
2022-12-09T20:17:00.911Z,34.61
2022-12-09T20:19:29.067Z,34.53
2022-12-09T20:21:57.889Z,34.56
2022-12-09T20:24:30.482Z,34.60
2022-12-09T20:26:58.700Z,34.63
2022-12-09T20:29:27.631Z,34.74
2022-12-09T20:31:56.991Z,34.86
2022-12-09T20:34:26.269Z,34.75
2022-12-09T20:36:54.375Z,34.67
2022-12-09T20:39:22.698Z,34.61
2022-12-09T20:41:52.131Z,34.75
2022-12-09T20:44:23.255Z,34.72
2022-12-09T20:46:53.362Z,34.65
2022-12-09T20:49:26.241Z,34.73
2022-12-09T20:51:54.812Z,34.74
2022-12-09T20:54:22.833Z,34.58
2022-12-09T20:56:53.131Z,34.51
2022-12-09T20:59:21.371Z,34.40
2022-12-09T21:01:50.663Z,34.55
2022-12-09T21:04:18.798Z,34.52
2022-12-09T21:06:47.080Z,34.44
2022-12-09T21:09:18.809Z,34.39
2022-12-09T21:11:47.645Z,34.35
2022-12-09T21:14:19.174Z,34.41
2022-12-09T21:16:50.360Z,34.53
2022-12-09T21:19:25.096Z,34.43
2022-12-09T21:21:54.591Z,34.51
2022-12-09T21:24:24.309Z,34.27
2022-12-09T21:26:55.426Z,34.40
2022-12-09T21:29:31.311Z,34.27
2022-12-09T21:32:00.764Z,34.45
2022-12-09T21:34:28.887Z,34.40
2022-12-09T21:36:56.843Z,34.50
2022-12-09T21:39:24.798Z,34.38
2022-12-09T21:41:53.509Z,34.54
2022-12-09T21:44:22.461Z,34.30
2022-12-09T21:46:54.137Z,34.29
2022-12-09T21:49:24.617Z,34.42
2022-12-09T21:51:52.631Z,34.38
2022-12-09T21:54:20.577Z,34.26
2022-12-09T21:56:48.505Z,34.39
2022-12-09T21:59:19.010Z,34.30
2022-12-09T22:01:47.299Z,34.30
2022-12-09T22:04:17.563Z,34.17
2022-12-09T22:06:47.452Z,34.23
2022-12-09T22:09:15.748Z,34.20
2022-12-09T22:11:43.705Z,34.31
2022-12-09T22:14:12.313Z,34.24
2022-12-09T22:16:42.445Z,34.21
2022-12-09T22:19:13.831Z,34.14
2022-12-09T22:21:43.477Z,34.24
2022-12-09T22:24:12.961Z,34.41
2022-12-09T22:26:43.426Z,34.15
2022-12-09T22:29:13.373Z,34.17
2022-12-09T22:31:42.763Z,34.04
2022-12-09T22:34:13.705Z,34.24
2022-12-09T22:36:44.136Z,34.22
2022-12-09T22:39:14.721Z,34.22
2022-12-09T22:41:43.829Z,34.17
2022-12-09T22:44:14.697Z,34.23
2022-12-09T22:46:43.226Z,34.10
2022-12-09T22:49:13.302Z,34.08
2022-12-09T22:51:43.457Z,34.10
2022-12-09T22:54:11.868Z,34.16
2022-12-09T22:56:41.953Z,34.09
2022-12-09T22:59:10.692Z,34.08
2022-12-09T23:01:39.028Z,34.18
2022-12-09T23:04:08.895Z,34.10
2022-12-09T23:06:38.705Z,34.14
2022-12-09T23:09:14.549Z,34.13
2022-12-09T23:11:42.829Z,34.05
2022-12-09T23:14:10.872Z,34.08
2022-12-09T23:16:39.051Z,34.05
2022-12-09T23:19:07.484Z,34.11
2022-12-09T23:21:37.719Z,34.12
2022-12-09T23:24:11.437Z,34.03
2022-12-09T23:26:41.400Z,34.12
2022-12-09T23:29:13.641Z,34.10
2022-12-09T23:31:41.924Z,34.08
2022-12-09T23:34:11.534Z,34.06
2022-12-09T23:36:41.085Z,34.04
2022-12-09T23:39:12.432Z,34.02
2022-12-09T23:41:42.170Z,34.08
2022-12-09T23:44:11.805Z,34.13
2022-12-09T23:46:40.602Z,34.01
2022-12-09T23:49:08.847Z,33.99
2022-12-09T23:51:39.644Z,34.01
2022-12-09T23:54:10.909Z,34.14
2022-12-09T23:56:44.200Z,33.95
2022-12-09T23:59:13.840Z,34.04
